« Back
NWS Peachtree City, Ga » Text Product » CSG Terminal Aerodrome Forecast


Printer-friendly Version
Current Version              Previous Versions:   1  2  3  4  5  6  7  8  9  

Terminal Aerodrome Forecast

252
FTUS42 KFFC 120542
TAFCSG
TAF
KCSG 120542Z 1206/1306 00000KT P6SM BKN040
     FM120800 00000KT P6SM BKN025
     FM121500 27005KT P6SM BKN035
     FM121800 29009KT P6SM SCT050
     FM122100 29010G18KT P6SM FEW050
     FM130000 32007KT P6SM SKC=



USA.gov is the U.S. government's official web portal to all federal, state and local government web resources and services.